createdAt,value
2018-12-18T00:00:36.760Z,68.70
2018-12-18T00:03:04.362Z,68.50
2018-12-18T00:05:34.871Z,68.80
2018-12-18T00:08:02.716Z,68.50
2018-12-18T00:10:37.219Z,68.90
2018-12-18T00:13:04.933Z,68.90
2018-12-18T00:15:32.520Z,69.00
2018-12-18T00:18:00.100Z,69.40
2018-12-18T00:20:27.755Z,69.30
2018-12-18T00:22:55.263Z,69.20
2018-12-18T00:25:22.917Z,69.20
2018-12-18T00:27:50.469Z,69.20
2018-12-18T00:30:18.028Z,69.20
2018-12-18T00:32:45.526Z,69.00
2018-12-18T00:35:13.152Z,69.00
2018-12-18T00:37:40.714Z,68.80
2018-12-18T00:40:08.357Z,68.70
2018-12-18T00:42:35.831Z,68.80
2018-12-18T00:45:04.026Z,68.90
2018-12-18T00:47:31.906Z,69.90
2018-12-18T00:49:59.379Z,69.00
2018-12-18T00:52:26.937Z,69.20
2018-12-18T00:54:54.537Z,69.40
2018-12-18T00:57:21.996Z,69.00
2018-12-18T00:59:50.702Z,69.00
2018-12-18T01:02:18.198Z,69.00
2018-12-18T01:04:45.871Z,69.30
2018-12-18T01:07:13.602Z,69.00
2018-12-18T01:09:41.169Z,69.00
2018-12-18T01:12:08.679Z,68.90
2018-12-18T01:14:36.169Z,68.90
2018-12-18T01:17:03.668Z,68.60
2018-12-18T01:19:31.169Z,68.50
2018-12-18T01:21:58.678Z,68.60
2018-12-18T01:24:26.205Z,68.20
2018-12-18T01:26:53.751Z,68.30
2018-12-18T01:29:21.284Z,68.40
2018-12-18T01:31:48.852Z,68.40
2018-12-18T01:34:16.421Z,68.40
2018-12-18T01:36:44.069Z,68.40
2018-12-18T01:39:11.574Z,68.40
2018-12-18T01:41:39.122Z,68.30
2018-12-18T01:44:06.622Z,68.60
2018-12-18T01:46:34.237Z,68.90
2018-12-18T01:49:01.704Z,68.20
2018-12-18T01:51:29.519Z,68.40
2018-12-18T01:53:57.099Z,68.40
2018-12-18T01:56:24.551Z,68.70
2018-12-18T01:58:52.137Z,68.60
2018-12-18T02:01:19.710Z,68.60
2018-12-18T02:03:47.311Z,68.60
2018-12-18T02:06:14.891Z,68.50
2018-12-18T02:08:42.551Z,68.30
2018-12-18T02:11:09.994Z,68.20
2018-12-18T02:13:37.758Z,68.30
2018-12-18T02:16:05.239Z,68.20
2018-12-18T02:18:32.697Z,68.20
2018-12-18T02:21:00.182Z,68.20
2018-12-18T02:23:27.636Z,68.20
2018-12-18T02:25:55.140Z,68.10
2018-12-18T02:28:22.855Z,68.20
2018-12-18T02:30:50.355Z,68.40
2018-12-18T02:33:18.670Z,68.40
2018-12-18T02:35:46.342Z,68.20
2018-12-18T02:38:13.837Z,68.10
2018-12-18T02:40:41.421Z,68.10
2018-12-18T02:43:09.085Z,68.10
2018-12-18T02:45:36.573Z,68.00
2018-12-18T02:48:04.192Z,68.00
2018-12-18T02:50:31.666Z,68.10
2018-12-18T02:52:59.121Z,68.10
2018-12-18T02:55:26.608Z,68.30
2018-12-18T02:57:54.122Z,68.20
2018-12-18T03:00:21.678Z,68.40
2018-12-18T03:02:49.136Z,68.40
2018-12-18T03:05:16.761Z,68.40
2018-12-18T03:07:44.228Z,68.40
2018-12-18T03:10:11.836Z,68.50
2018-12-18T03:12:39.297Z,68.30
2018-12-18T03:15:06.894Z,67.90
2018-12-18T03:17:34.484Z,68.10
2018-12-18T03:20:01.957Z,68.00
2018-12-18T03:22:29.447Z,67.80
2018-12-18T03:24:56.927Z,67.80
2018-12-18T03:27:24.466Z,67.80
2018-12-18T03:29:51.962Z,67.80
2018-12-18T03:32:20.570Z,67.60
2018-12-18T03:34:48.226Z,67.60
2018-12-18T03:37:15.692Z,67.50
2018-12-18T03:39:43.176Z,67.90
2018-12-18T03:42:10.617Z,67.60
2018-12-18T03:44:38.177Z,67.70
2018-12-18T03:47:05.652Z,67.50
2018-12-18T03:49:33.122Z,67.40
2018-12-18T03:52:00.626Z,67.30
2018-12-18T03:54:28.091Z,67.60
2018-12-18T03:56:55.582Z,67.30
2018-12-18T03:59:23.256Z,67.40
2018-12-18T04:01:50.899Z,67.50
2018-12-18T04:04:18.345Z,67.40
2018-12-18T04:06:45.859Z,67.50
2018-12-18T04:09:13.308Z,67.90
2018-12-18T04:11:42.758Z,68.00
2018-12-18T04:14:10.218Z,68.20
2018-12-18T04:16:37.968Z,68.20
2018-12-18T04:19:05.420Z,68.40
2018-12-18T04:21:32.906Z,68.40
2018-12-18T04:24:00.445Z,68.60
2018-12-18T04:26:27.937Z,68.60
2018-12-18T04:28:55.401Z,68.40
2018-12-18T04:31:22.999Z,68.40
2018-12-18T04:33:50.463Z,68.90
2018-12-18T04:36:17.949Z,68.80
2018-12-18T04:38:45.447Z,68.90
2018-12-18T04:41:12.996Z,69.30
2018-12-18T04:43:40.507Z,69.70
2018-12-18T04:46:08.058Z,69.10
2018-12-18T04:48:35.498Z,69.00
2018-12-18T04:51:03.004Z,69.10
2018-12-18T04:53:30.748Z,69.50
2018-12-18T04:55:58.243Z,69.00
2018-12-18T04:58:25.698Z,69.50
2018-12-18T05:00:54.498Z,69.00
2018-12-18T05:03:22.066Z,69.10
2018-12-18T05:05:49.682Z,69.20
2018-12-18T05:08:17.205Z,68.70
2018-12-18T05:10:44.697Z,68.30
2018-12-18T05:13:12.155Z,68.30
2018-12-18T05:15:39.635Z,68.20
2018-12-18T05:18:07.100Z,68.40
2018-12-18T05:20:34.658Z,68.60
2018-12-18T05:23:02.228Z,68.30
2018-12-18T05:25:29.714Z,68.40
2018-12-18T05:27:57.192Z,68.10
2018-12-18T05:30:24.657Z,68.40
2018-12-18T05:32:52.162Z,68.40
2018-12-18T05:35:19.626Z,68.40
2018-12-18T05:37:47.161Z,68.40
2018-12-18T05:40:14.608Z,68.70
2018-12-18T05:42:42.096Z,68.40
2018-12-18T05:45:09.552Z,68.40
2018-12-18T05:47:37.182Z,68.20
2018-12-18T05:50:06.068Z,68.20
2018-12-18T05:52:33.643Z,68.20
2018-12-18T05:55:01.102Z,68.20
2018-12-18T05:57:28.700Z,67.90
2018-12-18T05:59:56.185Z,68.10
2018-12-18T06:02:23.695Z,67.90
2018-12-18T06:04:51.166Z,67.80
2018-12-18T06:07:18.657Z,67.60
2018-12-18T06:09:46.173Z,67.50
2018-12-18T06:12:13.664Z,67.40
2018-12-18T06:14:41.184Z,67.70
2018-12-18T06:17:08.714Z,67.40
2018-12-18T06:19:36.245Z,67.30
2018-12-18T06:22:03.733Z,67.50
2018-12-18T06:24:31.219Z,67.60
2018-12-18T06:26:58.762Z,67.70
2018-12-18T06:29:26.309Z,67.40
2018-12-18T06:31:55.351Z,67.30
2018-12-18T06:34:23.105Z,67.20
2018-12-18T06:36:50.665Z,67.40
2018-12-18T06:39:18.121Z,68.00
2018-12-18T06:41:45.628Z,67.80
2018-12-18T06:44:13.078Z,67.90
2018-12-18T06:46:40.688Z,68.30
2018-12-18T06:49:08.234Z,67.80
2018-12-18T06:51:35.766Z,68.00
2018-12-18T06:54:03.289Z,68.20
2018-12-18T06:56:30.907Z,68.20
2018-12-18T06:58:59.327Z,68.40
2018-12-18T07:01:26.927Z,68.50
2018-12-18T07:03:54.492Z,68.60
2018-12-18T07:06:22.081Z,68.50
2018-12-18T07:08:49.656Z,68.80
2018-12-18T07:11:17.121Z,68.70
2018-12-18T07:13:44.615Z,68.80
2018-12-18T07:16:12.116Z,69.00
2018-12-18T07:18:39.594Z,68.60
2018-12-18T07:21:07.100Z,68.40
2018-12-18T07:23:34.593Z,68.60
2018-12-18T07:26:02.897Z,68.70
2018-12-18T07:28:30.385Z,68.60
2018-12-18T07:30:57.848Z,68.80
2018-12-18T07:33:25.405Z,68.70
2018-12-18T07:35:52.983Z,69.30
2018-12-18T07:38:20.514Z,69.70
2018-12-18T07:40:49.083Z,69.50
2018-12-18T07:43:16.624Z,69.60
2018-12-18T07:45:44.185Z,69.90
2018-12-18T07:48:11.743Z,69.30
2018-12-18T07:50:39.295Z,69.60
2018-12-18T07:53:06.839Z,69.80
2018-12-18T07:55:34.462Z,69.40
2018-12-18T07:58:01.960Z,68.90
2018-12-18T08:00:29.438Z,69.50
2018-12-18T08:02:56.922Z,68.90
2018-12-18T08:05:29.807Z,68.80
2018-12-18T08:07:54.280Z,68.40
2018-12-18T08:10:21.729Z,68.50
2018-12-18T08:12:49.253Z,68.80
2018-12-18T08:15:17.015Z,68.50
2018-12-18T08:17:44.487Z,68.60
2018-12-18T08:20:11.998Z,68.80
2018-12-18T08:22:39.526Z,68.70
2018-12-18T08:25:07.102Z,68.60
2018-12-18T08:27:34.644Z,68.70
2018-12-18T08:30:02.181Z,68.60
2018-12-18T08:32:29.772Z,68.60
2018-12-18T08:34:57.250Z,68.20
2018-12-18T08:37:24.805Z,68.00
2018-12-18T08:39:52.444Z,67.90
2018-12-18T08:42:19.978Z,67.70
2018-12-18T08:44:47.430Z,67.90
2018-12-18T08:47:15.007Z,67.40
2018-12-18T08:49:42.466Z,67.30
2018-12-18T08:52:10.097Z,67.20
2018-12-18T08:54:37.612Z,67.00
2018-12-18T08:57:05.128Z,67.20
2018-12-18T08:59:32.682Z,67.30
2018-12-18T09:02:00.214Z,67.70
2018-12-18T09:04:27.706Z,67.40
2018-12-18T09:06:55.314Z,67.40
2018-12-18T09:09:22.962Z,67.50
2018-12-18T09:11:50.540Z,67.20
2018-12-18T09:14:18.097Z,67.20
2018-12-18T09:16:51.286Z,67.20
2018-12-18T09:19:18.785Z,66.90
2018-12-18T09:21:46.301Z,67.20
2018-12-18T09:24:13.866Z,67.10
2018-12-18T09:26:41.325Z,67.20
2018-12-18T09:29:08.815Z,67.00
2018-12-18T09:31:36.274Z,67.10
2018-12-18T09:34:03.831Z,66.80
2018-12-18T09:36:31.387Z,66.80
2018-12-18T09:39:04.461Z,66.40
2018-12-18T09:41:33.886Z,66.10
2018-12-18T09:44:07.005Z,65.90
2018-12-18T09:46:34.574Z,65.80
2018-12-18T09:49:02.055Z,65.70
2018-12-18T09:51:29.651Z,65.70
2018-12-18T09:53:57.189Z,65.10
2018-12-18T09:56:24.693Z,65.00
2018-12-18T09:58:52.171Z,65.00
2018-12-18T10:01:19.708Z,65.30
2018-12-18T10:03:47.307Z,65.30
2018-12-18T10:06:14.771Z,63.80
2018-12-18T10:08:42.320Z,63.70
2018-12-18T10:11:09.812Z,63.50
2018-12-18T10:13:37.482Z,63.20
2018-12-18T10:16:04.986Z,63.20
2018-12-18T10:18:32.480Z,63.40
2018-12-18T10:21:00.044Z,62.50
2018-12-18T10:23:27.521Z,62.70
2018-12-18T10:25:55.062Z,62.20
2018-12-18T10:28:22.562Z,62.30
2018-12-18T10:30:50.039Z,63.10
2018-12-18T10:33:17.510Z,62.30
2018-12-18T10:35:45.073Z,62.30
2018-12-18T10:38:12.566Z,62.00
2018-12-18T10:40:40.058Z,61.80
2018-12-18T10:43:07.517Z,61.20
2018-12-18T10:45:35.066Z,60.80
2018-12-18T10:48:02.616Z,60.60
2018-12-18T10:50:30.270Z,60.80
2018-12-18T10:52:57.829Z,61.30
2018-12-18T10:55:25.366Z,61.10
2018-12-18T10:57:52.893Z,60.80
2018-12-18T11:00:22.336Z,60.70
2018-12-18T11:02:49.874Z,60.60
2018-12-18T11:05:17.469Z,60.30
2018-12-18T11:07:44.954Z,60.40
2018-12-18T11:10:12.629Z,60.60
2018-12-18T11:12:40.205Z,60.50
2018-12-18T11:15:07.876Z,60.10
2018-12-18T11:17:35.500Z,59.90
2018-12-18T11:20:03.501Z,59.70
2018-12-18T11:22:31.016Z,59.80
2018-12-18T11:24:58.564Z,59.80
2018-12-18T11:27:26.189Z,59.80
2018-12-18T11:29:53.742Z,59.70
2018-12-18T11:32:21.231Z,59.80
2018-12-18T11:34:48.772Z,59.90
2018-12-18T11:37:16.265Z,59.90
2018-12-18T11:39:43.930Z,59.70
2018-12-18T11:42:11.431Z,59.60
2018-12-18T11:44:38.896Z,59.20
2018-12-18T11:47:06.408Z,59.20
2018-12-18T11:49:33.861Z,58.70
2018-12-18T11:52:01.381Z,59.00
2018-12-18T11:54:29.127Z,58.90
2018-12-18T11:56:56.732Z,58.90
2018-12-18T11:59:24.245Z,58.90
2018-12-18T12:01:51.845Z,58.80
2018-12-18T12:04:19.376Z,58.90
2018-12-18T12:06:46.856Z,58.70
2018-12-18T12:09:14.317Z,58.60
2018-12-18T12:11:41.952Z,58.50
2018-12-18T12:14:09.455Z,58.10
2018-12-18T12:16:37.083Z,57.90
2018-12-18T12:19:04.540Z,57.90
2018-12-18T12:21:32.039Z,58.00
2018-12-18T12:23:59.578Z,58.20
2018-12-18T12:26:33.525Z,58.10
2018-12-18T12:29:01.202Z,57.60
2018-12-18T12:31:28.762Z,57.80
2018-12-18T12:33:56.238Z,58.10
2018-12-18T12:36:29.470Z,57.70
2018-12-18T12:38:53.232Z,57.60
2018-12-18T12:41:20.701Z,57.60
2018-12-18T12:43:48.178Z,57.30
2018-12-18T12:46:15.667Z,57.10
2018-12-18T12:48:48.759Z,57.10
2018-12-18T12:51:16.246Z,57.30
2018-12-18T12:53:43.721Z,57.10
2018-12-18T12:56:11.213Z,56.90
2018-12-18T12:58:38.689Z,56.90
2018-12-18T13:01:06.157Z,57.00
2018-12-18T13:03:33.671Z,57.00
2018-12-18T13:06:01.172Z,56.80
2018-12-18T13:08:28.691Z,56.60
2018-12-18T13:10:56.173Z,56.60
2018-12-18T13:13:23.762Z,56.60
2018-12-18T13:15:51.231Z,56.80
2018-12-18T13:18:18.701Z,56.90
2018-12-18T13:20:46.159Z,57.10
2018-12-18T13:23:13.753Z,57.60
2018-12-18T13:25:41.208Z,56.90
2018-12-18T13:28:08.704Z,57.20
2018-12-18T13:30:36.254Z,56.80
2018-12-18T13:33:03.806Z,56.90
2018-12-18T13:35:31.287Z,56.20
2018-12-18T13:37:58.961Z,56.30
2018-12-18T13:40:26.453Z,56.00
2018-12-18T13:42:53.952Z,56.60
2018-12-18T13:45:21.434Z,56.30
2018-12-18T13:47:49.031Z,56.00
2018-12-18T13:50:16.514Z,56.20
2018-12-18T13:52:43.994Z,56.20
2018-12-18T13:55:11.481Z,55.60
2018-12-18T13:57:39.064Z,55.70
2018-12-18T14:00:06.791Z,55.40
2018-12-18T14:02:34.832Z,54.70
2018-12-18T14:05:02.291Z,55.10
2018-12-18T14:07:29.995Z,55.00
2018-12-18T14:09:57.675Z,55.10
2018-12-18T14:12:25.151Z,55.60
2018-12-18T14:14:52.608Z,55.20
2018-12-18T14:19:54.141Z,54.90
2018-12-18T14:22:21.656Z,55.50
2018-12-18T14:24:49.118Z,55.20
2018-12-18T14:27:16.613Z,55.00
2018-12-18T14:29:44.077Z,55.50
2018-12-18T14:32:11.614Z,56.00
2018-12-18T14:34:39.075Z,55.90
2018-12-18T14:37:06.623Z,55.90
2018-12-18T14:39:34.349Z,55.50
2018-12-18T14:42:01.873Z,55.60
2018-12-18T14:44:29.391Z,55.70
2018-12-18T14:46:56.839Z,56.40
2018-12-18T14:49:24.438Z,55.70
2018-12-18T14:51:51.937Z,56.20
2018-12-18T14:54:19.561Z,56.10
2018-12-18T14:56:47.031Z,56.20
2018-12-18T14:59:14.501Z,56.60
2018-12-18T15:01:41.992Z,57.00
2018-12-18T15:04:09.555Z,57.00
2018-12-18T15:06:37.001Z,57.00
2018-12-18T15:09:05.687Z,57.20
2018-12-18T15:11:33.246Z,57.10
2018-12-18T15:14:00.753Z,57.20
2018-12-18T15:16:28.241Z,57.20
2018-12-18T15:18:55.790Z,57.10
2018-12-18T15:21:23.362Z,57.00
2018-12-18T15:23:50.947Z,56.80
2018-12-18T15:26:18.426Z,57.00
2018-12-18T15:28:45.904Z,57.00
2018-12-18T15:31:13.516Z,57.40
2018-12-18T15:33:41.089Z,57.50
2018-12-18T15:36:08.608Z,57.80
2018-12-18T15:38:36.104Z,57.90
2018-12-18T15:41:03.648Z,57.70
2018-12-18T15:43:31.224Z,57.60
2018-12-18T15:45:58.672Z,57.90
2018-12-18T15:48:26.235Z,57.40
2018-12-18T15:50:53.710Z,57.50
2018-12-18T15:53:21.279Z,57.60
2018-12-18T15:55:48.736Z,57.60
2018-12-18T15:58:16.214Z,57.70
2018-12-18T16:00:43.675Z,57.70
2018-12-18T16:03:11.270Z,58.70
2018-12-18T16:05:38.753Z,58.50
2018-12-18T16:08:06.204Z,59.10
2018-12-18T16:10:33.750Z,59.00
2018-12-18T16:13:01.304Z,59.10
2018-12-18T16:15:28.809Z,59.50
2018-12-18T16:17:56.347Z,59.50
2018-12-18T16:20:23.861Z,59.30
2018-12-18T16:22:51.414Z,59.30
2018-12-18T16:25:18.882Z,59.60
2018-12-18T16:27:46.366Z,59.20
2018-12-18T16:30:13.977Z,59.00
2018-12-18T16:32:41.513Z,59.30
2018-12-18T16:35:09.138Z,59.10
2018-12-18T16:37:36.661Z,59.10
2018-12-18T16:40:04.632Z,59.40
2018-12-18T16:42:32.750Z,59.00
2018-12-18T16:45:00.285Z,60.00
2018-12-18T16:47:27.733Z,59.10
2018-12-18T16:49:55.291Z,59.30
2018-12-18T16:52:22.761Z,59.50
2018-12-18T16:54:50.294Z,59.60
2018-12-18T16:57:17.749Z,59.50
2018-12-18T16:59:45.218Z,59.90
2018-12-18T17:02:12.686Z,59.70
2018-12-18T17:04:40.298Z,59.70
2018-12-18T17:07:07.770Z,60.00
2018-12-18T17:09:35.301Z,59.70
2018-12-18T17:12:02.794Z,59.70
2018-12-18T17:14:30.374Z,59.80
2018-12-18T17:16:57.930Z,59.90
2018-12-18T17:19:25.439Z,60.10
2018-12-18T17:21:52.914Z,60.00
2018-12-18T17:24:20.543Z,59.90
2018-12-18T17:26:48.127Z,60.00
2018-12-18T17:29:15.595Z,59.70
2018-12-18T17:31:43.053Z,59.60
2018-12-18T17:34:10.646Z,59.60
2018-12-18T17:36:38.230Z,59.80
2018-12-18T17:39:06.842Z,59.90
2018-12-18T17:41:34.392Z,60.00
2018-12-18T17:44:02.166Z,60.00
2018-12-18T17:46:29.661Z,60.10
2018-12-18T17:48:57.353Z,60.90
2018-12-18T17:51:24.861Z,60.30
2018-12-18T17:53:52.334Z,60.60
2018-12-18T17:56:19.806Z,60.00
2018-12-18T17:58:47.310Z,60.20
2018-12-18T18:01:14.992Z,59.80
2018-12-18T18:03:42.535Z,59.70
2018-12-18T18:06:10.109Z,59.60
2018-12-18T18:08:37.624Z,59.70
2018-12-18T18:11:05.114Z,59.70
2018-12-18T18:13:32.584Z,60.30
2018-12-18T18:16:00.212Z,59.90
2018-12-18T18:18:27.669Z,60.00
2018-12-18T18:20:55.156Z,60.50
2018-12-18T18:23:22.614Z,60.00
2018-12-18T18:25:50.108Z,59.90
2018-12-18T18:28:17.571Z,60.20
2018-12-18T18:30:45.054Z,60.50
2018-12-18T18:33:12.513Z,60.50
2018-12-18T18:35:40.018Z,60.30
2018-12-18T18:38:07.527Z,60.40
2018-12-18T18:40:35.017Z,60.90
2018-12-18T18:43:02.518Z,60.90
2018-12-18T18:45:29.990Z,61.00
2018-12-18T18:47:57.570Z,61.40
2018-12-18T18:50:25.151Z,61.30
2018-12-18T18:52:52.608Z,61.20
2018-12-18T18:55:20.126Z,61.40
2018-12-18T18:57:47.609Z,61.30
2018-12-18T19:00:15.066Z,61.10
2018-12-18T19:02:42.568Z,61.50
2018-12-18T19:05:10.026Z,61.60
2018-12-18T19:07:37.508Z,61.20
2018-12-18T19:10:06.198Z,61.40
2018-12-18T19:12:33.764Z,60.50
2018-12-18T19:15:01.233Z,60.80
2018-12-18T19:17:28.720Z,60.60
2018-12-18T19:19:56.198Z,60.80
2018-12-18T19:22:23.677Z,60.60
2018-12-18T19:24:51.331Z,60.60
2018-12-18T19:27:18.816Z,60.20
2018-12-18T19:29:46.281Z,60.30
2018-12-18T19:32:13.774Z,60.40
2018-12-18T19:34:41.233Z,60.50
2018-12-18T19:37:08.727Z,60.20
2018-12-18T19:39:36.224Z,60.10
2018-12-18T19:42:03.859Z,59.90
2018-12-18T19:44:31.338Z,59.90
2018-12-18T19:46:58.861Z,59.70
2018-12-18T19:49:26.425Z,59.70
2018-12-18T19:51:53.909Z,59.70
2018-12-18T19:54:21.395Z,60.00
2018-12-18T19:56:48.878Z,59.60
2018-12-18T19:59:16.385Z,59.30
2018-12-18T20:01:43.948Z,59.10
2018-12-18T20:04:11.462Z,59.00
2018-12-18T20:06:38.991Z,59.00
2018-12-18T20:09:07.041Z,59.10
2018-12-18T20:11:35.039Z,59.70
2018-12-18T20:14:02.558Z,59.40
2018-12-18T20:16:30.062Z,59.00
2018-12-18T20:18:57.625Z,59.10
2018-12-18T20:21:25.209Z,58.90
2018-12-18T20:23:52.763Z,58.90
2018-12-18T20:26:20.270Z,58.40
2018-12-18T20:28:47.844Z,58.70
2018-12-18T20:31:15.323Z,58.50
2018-12-18T20:33:42.865Z,58.40
2018-12-18T20:36:10.383Z,58.50
2018-12-18T20:38:37.915Z,58.90
2018-12-18T20:41:05.421Z,58.50
2018-12-18T20:43:32.977Z,58.20
2018-12-18T20:46:00.606Z,58.70
2018-12-18T20:48:28.100Z,58.70
2018-12-18T20:50:55.554Z,58.40
2018-12-18T20:53:23.034Z,58.70
2018-12-18T20:55:51.799Z,58.70
2018-12-18T20:58:19.374Z,59.00
2018-12-18T21:00:46.922Z,58.40
2018-12-18T21:03:14.450Z,58.30
2018-12-18T21:05:41.913Z,58.60
2018-12-18T21:08:09.614Z,59.20
2018-12-18T21:10:37.082Z,59.40
2018-12-18T21:13:10.257Z,59.40
2018-12-18T21:15:44.579Z,59.00
2018-12-18T21:18:12.054Z,58.80
2018-12-18T21:20:39.519Z,58.90
2018-12-18T21:23:06.993Z,58.60
2018-12-18T21:25:34.458Z,58.60
2018-12-18T21:28:02.049Z,58.70
2018-12-18T21:30:29.544Z,58.60
2018-12-18T21:32:57.057Z,58.60
2018-12-18T21:35:24.572Z,59.00
2018-12-18T21:37:52.499Z,58.60
2018-12-18T21:40:20.007Z,58.80
2018-12-18T21:42:47.473Z,58.50
2018-12-18T21:45:14.952Z,58.60
2018-12-18T21:47:42.414Z,58.30
2018-12-18T21:50:09.974Z,58.20
2018-12-18T21:52:37.530Z,58.20
2018-12-18T21:55:05.193Z,59.10
2018-12-18T21:57:32.870Z,58.80
2018-12-18T22:00:00.369Z,59.40
2018-12-18T22:02:27.837Z,59.00
2018-12-18T22:04:55.331Z,59.40
2018-12-18T22:07:22.822Z,59.30
2018-12-18T22:09:50.286Z,59.90
2018-12-18T22:12:17.737Z,59.50
2018-12-18T22:14:45.226Z,60.00
2018-12-18T22:17:12.686Z,59.70
2018-12-18T22:19:40.217Z,60.40
2018-12-18T22:22:07.728Z,60.30
2018-12-18T22:24:35.274Z,59.70
2018-12-18T22:27:02.894Z,59.30
2018-12-18T22:29:30.374Z,59.30
2018-12-18T22:31:57.834Z,59.10
2018-12-18T22:34:25.333Z,59.80
2018-12-18T22:36:52.878Z,58.90
2018-12-18T22:39:20.471Z,59.10
2018-12-18T22:41:47.933Z,58.60
2018-12-18T22:44:15.453Z,58.80
2018-12-18T22:46:42.984Z,58.40
2018-12-18T22:49:10.448Z,58.30
2018-12-18T22:51:37.931Z,58.80
2018-12-18T22:54:05.398Z,59.50
2018-12-18T22:56:32.863Z,58.30
2018-12-18T22:59:00.346Z,58.70
2018-12-18T23:01:33.462Z,58.30
2018-12-18T23:04:00.941Z,58.20
2018-12-18T23:06:28.449Z,58.20
2018-12-18T23:08:55.906Z,58.10
2018-12-18T23:11:23.374Z,58.20
2018-12-18T23:13:51.093Z,58.00
2018-12-18T23:16:18.655Z,58.10
2018-12-18T23:18:46.144Z,58.00
2018-12-18T23:21:13.632Z,58.10
2018-12-18T23:23:41.090Z,58.30
2018-12-18T23:26:08.559Z,58.70
2018-12-18T23:28:36.163Z,58.50
2018-12-18T23:31:03.638Z,58.20
2018-12-18T23:33:31.186Z,58.70
2018-12-18T23:35:58.790Z,58.50
2018-12-18T23:38:26.311Z,58.70
2018-12-18T23:40:53.792Z,58.30
2018-12-18T23:43:21.300Z,58.70
2018-12-18T23:45:48.843Z,58.60
2018-12-18T23:48:16.439Z,58.30
2018-12-18T23:50:44.342Z,57.70
2018-12-18T23:53:11.798Z,57.70
2018-12-18T23:55:39.332Z,57.60
2018-12-18T23:58:06.899Z,58.00
